Time;durP1;ratioP1;P1;durP2;ratioP2;P2;SDS_P1;SDS_P2;PMS_P1;PMS_P2;Temp;Humidity;BMP_temperature;BMP_pressure;BME280_temperature;BME280_humidity;BME280_pressure;Samples;Min_cycle;Max_cycle;Signal;HPM_P1;HPM_P2
2022/05/11 00:01:34;;;;;;;1.33;1.05;;;22.90;43.50;;;;;;5076431;28;20031;-51
2022/05/11 00:04:01;;;;;;;1.92;1.20;;;22.90;43.50;;;;;;5075628;28;20095;-52
2022/05/11 00:06:27;;;;;;;1.52;1.00;;;22.80;43.50;;;;;;5074746;28;20017;-54
2022/05/11 00:08:54;;;;;;;1.10;1.00;;;22.90;43.60;;;;;;5075928;28;20035;-54
2022/05/11 00:11:20;;;;;;;1.67;1.00;;;22.80;43.50;;;;;;5075173;28;20058;-52
2022/05/11 00:13:46;;;;;;;2.20;1.17;;;22.80;43.50;;;;;;5074087;28;20021;-50
2022/05/11 00:16:12;;;;;;;1.85;1.00;;;22.80;43.50;;;;;;5074776;28;20027;-51
2022/05/11 00:18:38;;;;;;;1.75;1.30;;;22.90;43.60;;;;;;5072966;28;20461;-48
2022/05/11 00:21:04;;;;;;;1.45;1.00;;;22.80;43.60;;;;;;5073948;28;20058;-49
2022/05/11 00:23:30;;;;;;;0.88;0.82;;;22.80;43.60;;;;;;5073937;28;20040;-51
2022/05/11 00:25:57;;;;;;;2.63;1.20;;;22.80;43.70;;;;;;5074107;28;20107;-50
2022/05/11 00:28:24;;;;;;;1.52;1.10;;;22.80;43.70;;;;;;5073556;28;20020;-50
2022/05/11 00:30:49;;;;;;;2.20;1.00;;;22.80;43.80;;;;;;5072173;28;20046;-49
2022/05/11 00:33:15;;;;;;;2.67;1.15;;;22.80;43.80;;;;;;5072393;28;20024;-49
2022/05/11 00:35:42;;;;;;;1.60;0.88;;;22.80;43.80;;;;;;5073768;28;20029;-49
2022/05/11 00:38:08;;;;;;;7.65;1.40;;;22.80;43.80;;;;;;5072429;28;20017;-51
2022/05/11 00:40:34;;;;;;;1.27;1.00;;;22.80;43.80;;;;;;5073358;28;20013;-50
2022/05/11 00:43:00;;;;;;;2.08;0.95;;;22.80;43.80;;;;;;5072368;28;20024;-49
2022/05/11 00:45:25;;;;;;;2.15;1.17;;;22.80;43.80;;;;;;5072408;28;20058;-49
2022/05/11 00:48:00;;;;;;;1.33;1.00;;;22.80;43.80;;;;;;5073453;28;20025;-48
2022/05/11 00:50:30;;;;;;;3.22;1.20;;;22.80;43.80;;;;;;5072234;28;20051;-49
2022/05/11 00:53:15;;;;;;;1.27;0.85;;;22.80;43.80;;;;;;5072222;28;20016;-50
2022/05/11 00:55:42;;;;;;;1.20;0.95;;;22.80;43.80;;;;;;5072266;28;20035;-47
2022/05/11 00:58:20;;;;;;;1.30;1.10;;;22.80;43.80;;;;;;5072129;28;20012;-49
2022/05/11 01:00:46;;;;;;;1.85;0.93;;;22.70;43.80;;;;;;5072562;28;20009;-51
2022/05/11 01:03:40;;;;;;;2.55;1.05;;;22.70;43.80;;;;;;5072234;28;20463;-53
2022/05/11 01:06:07;;;;;;;1.27;1.00;;;22.70;43.80;;;;;;5070260;28;20071;-50
2022/05/11 01:08:32;;;;;;;0.90;0.80;;;22.80;43.80;;;;;;5058427;28;20017;-48
2022/05/11 01:11:01;;;;;;;1.25;0.90;;;22.70;43.80;;;;;;5077604;28;20051;-47
2022/05/11 01:13:26;;;;;;;1.30;0.90;;;22.80;43.90;;;;;;5077551;28;20047;-48
2022/05/11 01:15:52;;;;;;;1.42;0.98;;;22.80;43.90;;;;;;5076728;28;20093;-49
2022/05/11 01:18:19;;;;;;;1.67;0.95;;;22.70;43.80;;;;;;5077527;28;20463;-52
2022/05/11 01:20:47;;;;;;;2.28;0.98;;;22.70;43.90;;;;;;5077819;28;20100;-48
2022/05/11 01:23:46;;;;;;;1.45;0.93;;;22.80;43.90;;;;;;5076049;28;20056;-53
2022/05/11 01:26:15;;;;;;;1.48;0.90;;;22.70;43.90;;;;;;5077207;28;20074;-49
2022/05/11 01:28:43;;;;;;;1.17;0.98;;;22.70;43.90;;;;;;5076896;28;20028;-49
2022/05/11 01:31:10;;;;;;;1.33;0.88;;;22.70;44.00;;;;;;5076648;28;20028;-52
2022/05/11 01:33:37;;;;;;;1.67;0.90;;;22.70;44.00;;;;;;5076552;28;20012;-50
2022/05/11 01:36:43;;;;;;;1.40;1.10;;;22.70;44.00;;;;;;5076496;28;20012;-50
2022/05/11 01:39:09;;;;;;;1.10;0.80;;;22.70;44.00;;;;;;5076573;28;20021;-52
2022/05/11 01:41:37;;;;;;;3.13;1.10;;;22.70;44.00;;;;;;5077112;28;20475;-49
2022/05/11 01:44:05;;;;;;;2.80;0.90;;;22.70;44.10;;;;;;5076806;28;20043;-53
2022/05/11 01:46:31;;;;;;;2.33;1.05;;;22.70;44.10;;;;;;5076197;28;20444;-52
2022/05/11 01:48:58;;;;;;;1.88;1.00;;;22.70;44.10;;;;;;5058967;28;20467;-53
2022/05/11 01:51:25;;;;;;;2.28;0.80;;;22.70;44.10;;;;;;5076206;28;20032;-48
2022/05/11 01:53:53;;;;;;;3.45;1.40;;;22.70;44.10;;;;;;5075236;28;20456;-51
2022/05/11 01:56:20;;;;;;;1.35;0.90;;;22.70;44.10;;;;;;5075071;28;20030;-51
2022/05/11 01:58:46;;;;;;;1.52;0.88;;;22.70;44.10;;;;;;5076177;28;20013;-51
2022/05/11 02:01:15;;;;;;;1.73;0.73;;;22.60;44.00;;;;;;5075127;28;20061;-51
2022/05/11 02:03:43;;;;;;;2.20;1.00;;;22.60;44.10;;;;;;5075158;28;20015;-51
2022/05/11 02:08:54;;;;;;;1.63;1.10;;;22.60;44.10;;;;;;5076541;28;20406;-49
2022/05/11 02:11:20;;;;;;;1.25;0.82;;;22.70;44.70;;;;;;5076688;28;20013;-48
2022/05/11 02:13:46;;;;;;;2.55;1.00;;;22.60;44.10;;;;;;5076610;28;20020;-50
2022/05/11 02:16:12;;;;;;;1.52;0.90;;;22.70;44.10;;;;;;5075887;28;20475;-49
2022/05/11 02:18:38;;;;;;;1.83;0.80;;;22.70;44.20;;;;;;5075860;28;20119;-53
2022/05/11 02:21:04;;;;;;;1.08;0.80;;;22.60;44.10;;;;;;5075939;28;20447;-48
2022/05/11 02:23:30;;;;;;;1.55;1.00;;;22.60;44.20;;;;;;5076056;28;20044;-50
2022/05/11 02:25:57;;;;;;;1.65;0.90;;;22.60;44.20;;;;;;5075725;28;20016;-48
2022/05/11 02:28:23;;;;;;;1.13;0.90;;;22.60;44.20;;;;;;5074350;28;20053;-49
2022/05/11 02:30:51;;;;;;;2.08;1.20;;;22.60;44.20;;;;;;5075662;28;20012;-46
2022/05/11 02:33:17;;;;;;;1.58;1.05;;;22.60;44.30;;;;;;5075493;28;20005;-50
2022/05/11 02:35:43;;;;;;;1.25;1.00;;;22.60;44.40;;;;;;5075585;28;20050;-47
2022/05/11 02:38:15;;;;;;;1.45;0.82;;;22.60;44.40;;;;;;5074361;28;20455;-48
2022/05/11 02:40:41;;;;;;;1.25;0.90;;;22.60;44.40;;;;;;5075534;28;20519;-47
2022/05/11 02:43:08;;;;;;;1.65;1.00;;;22.60;44.40;;;;;;5075526;28;20048;-46
2022/05/11 02:45:35;;;;;;;1.25;0.88;;;22.60;44.40;;;;;;5075553;28;20028;-46
2022/05/11 02:48:03;;;;;;;1.50;0.90;;;22.60;44.40;;;;;;5076063;28;20023;-48
2022/05/11 02:50:34;;;;;;;4.07;1.00;;;22.60;44.50;;;;;;5076247;28;20096;-47
2022/05/11 02:53:02;;;;;;;1.98;1.00;;;22.60;44.50;;;;;;5075061;28;20012;-49
2022/05/11 02:55:28;;;;;;;1.75;0.77;;;22.60;44.50;;;;;;5075193;28;20047;-48
2022/05/11 02:57:54;;;;;;;1.10;0.88;;;22.60;44.50;;;;;;5075342;28;20025;-48
2022/05/11 03:00:20;;;;;;;0.80;0.75;;;22.60;45.10;;;;;;5075178;28;20602;-49
2022/05/11 03:02:46;;;;;;;2.33;0.90;;;22.60;44.60;;;;;;5074934;28;20013;-48
2022/05/11 03:05:13;;;;;;;2.42;1.27;;;22.60;44.60;;;;;;5074094;28;20050;-47
2022/05/11 03:07:39;;;;;;;2.97;1.27;;;22.50;44.50;;;;;;5074830;28;20017;-47
2022/05/11 03:10:06;;;;;;;3.15;1.42;;;22.60;44.60;;;;;;5074873;28;20490;-50
2022/05/11 03:12:32;;;;;;;1.05;0.90;;;22.60;44.70;;;;;;5074789;28;20043;-46
2022/05/11 03:14:58;;;;;;;3.28;1.10;;;22.50;44.60;;;;;;5075051;28;20026;-47
2022/05/11 03:17:24;;;;;;;1.27;1.00;;;22.50;44.60;;;;;;5074991;28;20082;-53
2022/05/11 03:19:50;;;;;;;3.38;1.23;;;22.50;44.70;;;;;;5075711;28;20024;-51
2022/05/11 03:22:16;;;;;;;1.50;1.08;;;22.50;44.70;;;;;;5057406;28;20044;-49
2022/05/11 03:24:43;;;;;;;1.27;1.00;;;22.50;44.70;;;;;;5076075;28;20038;-48
2022/05/11 03:27:09;;;;;;;2.47;1.00;;;22.60;44.80;;;;;;5076055;28;20547;-48
2022/05/11 03:29:35;;;;;;;1.50;0.80;;;22.50;44.70;;;;;;5075303;28;20032;-51
2022/05/11 03:34:45;;;;;;;1.10;1.00;;;22.50;44.80;;;;;;5074827;28;20046;-52
2022/05/11 03:37:13;;;;;;;0.95;0.80;;;22.50;44.80;;;;;;5073497;28;20495;-51
2022/05/11 03:39:39;;;;;;;3.40;1.00;;;22.50;44.80;;;;;;5074597;28;20077;-48
2022/05/11 03:42:06;;;;;;;1.80;1.08;;;22.50;44.80;;;;;;5075178;28;20013;-51
2022/05/11 03:44:32;;;;;;;3.17;1.20;;;22.50;44.80;;;;;;5075554;28;20040;-48
2022/05/11 03:46:59;;;;;;;2.28;0.93;;;22.50;44.80;;;;;;5075058;28;20467;-49
2022/05/11 03:49:26;;;;;;;2.20;1.20;;;22.50;44.80;;;;;;5074487;28;20038;-46
2022/05/11 03:51:52;;;;;;;1.80;1.20;;;22.50;44.90;;;;;;5074617;28;20020;-47
2022/05/11 03:54:18;;;;;;;1.65;1.08;;;22.50;44.90;;;;;;5075600;28;20025;-52
2022/05/11 03:56:44;;;;;;;1.50;1.10;;;22.50;44.90;;;;;;5076124;28;20017;-53
2022/05/11 03:59:10;;;;;;;2.22;1.00;;;22.50;44.90;;;;;;5075678;28;20588;-51
2022/05/11 04:01:36;;;;;;;1.48;0.98;;;22.50;44.90;;;;;;5075792;28;20086;-47
2022/05/11 04:04:02;;;;;;;1.67;0.90;;;22.50;45.00;;;;;;5057301;28;20008;-48
2022/05/11 04:06:29;;;;;;;1.13;0.90;;;22.50;45.00;;;;;;5075210;28;20055;-49
2022/05/11 04:08:58;;;;;;;1.20;1.00;;;22.50;45.00;;;;;;5074351;28;20043;-48
2022/05/11 04:11:24;;;;;;;1.45;1.00;;;22.50;45.00;;;;;;5074322;28;20108;-51
2022/05/11 04:13:51;;;;;;;1.77;0.93;;;22.50;45.00;;;;;;5074178;28;20008;-50
2022/05/11 04:16:17;;;;;;;2.03;1.23;;;22.50;45.00;;;;;;5072885;28;20601;-49
2022/05/11 04:18:44;;;;;;;2.17;1.10;;;22.50;45.10;;;;;;5073758;28;20058;-49
2022/05/11 04:21:10;;;;;;;1.98;1.08;;;22.40;45.00;;;;;;5074356;28;20043;-50
2022/05/11 04:23:36;;;;;;;1.55;1.00;;;22.40;45.00;;;;;;5075161;28;20020;-50
2022/05/11 04:26:02;;;;;;;1.50;1.00;;;22.40;45.00;;;;;;5075732;28;20024;-49
2022/05/11 04:28:30;;;;;;;2.05;0.80;;;22.40;45.00;;;;;;5074817;28;20017;-55
2022/05/11 04:31:03;;;;;;;1.65;1.00;;;22.40;45.00;;;;;;5074043;28;20021;-52
2022/05/11 04:33:29;;;;;;;2.95;1.15;;;22.40;45.00;;;;;;5074247;28;20039;-49
2022/05/11 04:35:55;;;;;;;3.60;1.20;;;22.40;45.00;;;;;;5074699;28;20094;-49
2022/05/11 04:38:21;;;;;;;1.42;0.95;;;22.40;45.00;;;;;;5074236;28;20491;-48
2022/05/11 04:40:47;;;;;;;1.05;0.82;;;22.40;45.10;;;;;;5074252;28;20092;-53
2022/05/11 04:43:13;;;;;;;1.75;0.93;;;22.40;45.10;;;;;;5072842;28;20429;-51
2022/05/11 04:45:39;;;;;;;2.42;1.08;;;22.40;45.10;;;;;;5072341;28;20017;-46
2022/05/11 04:48:05;;;;;;;1.42;0.93;;;22.40;45.10;;;;;;5073745;28;20016;-49
2022/05/11 04:50:32;;;;;;;1.08;0.90;;;22.40;45.10;;;;;;5073536;28;20047;-48
2022/05/11 04:52:58;;;;;;;2.05;1.17;;;22.30;45.10;;;;;;5073429;28;20044;-46
2022/05/11 04:55:24;;;;;;;1.55;1.00;;;22.40;45.20;;;;;;5073070;28;20502;-47
2022/05/11 04:57:50;;;;;;;2.75;1.10;;;22.40;45.10;;;;;;5055482;28;20056;-47
2022/05/11 05:00:17;;;;;;;2.67;1.02;;;22.40;45.10;;;;;;5073259;28;20028;-47
2022/05/11 05:02:42;;;;;;;4.32;1.00;;;22.40;45.10;;;;;;5073134;28;20020;-47
2022/05/11 05:05:10;;;;;;;4.30;1.13;;;22.40;45.10;;;;;;5072787;28;20016;-48
2022/05/11 05:07:36;;;;;;;2.30;1.05;;;22.40;45.10;;;;;;5073007;28;20017;-47
2022/05/11 05:10:03;;;;;;;1.52;1.00;;;22.30;45.10;;;;;;5072907;28;20017;-49
2022/05/11 05:12:29;;;;;;;4.05;1.20;;;22.30;45.10;;;;;;5071844;28;20016;-46
2022/05/11 05:14:55;;;;;;;2.80;1.20;;;22.30;45.10;;;;;;5072846;28;20021;-48
2022/05/11 05:17:20;;;;;;;3.13;1.20;;;22.30;45.00;;;;;;5072799;28;20387;-48
2022/05/11 05:19:46;;;;;;;2.88;1.10;;;22.30;45.50;;;;;;5072725;28;20009;-52
2022/05/11 05:22:13;;;;;;;3.60;1.30;;;22.30;45.00;;;;;;5072355;28;20547;-48
2022/05/11 05:24:40;;;;;;;1.77;0.90;;;22.40;44.90;;;;;;5071624;28;20476;-46
2022/05/11 05:27:05;;;;;;;2.25;1.30;;;22.30;44.90;;;;;;5071747;28;20104;-47
2022/05/11 05:32:16;;;;;;;3.10;1.42;;;22.30;44.80;;;;;;5073136;28;20403;-51
2022/05/11 05:34:46;;;;;;;4.30;1.25;;;22.30;44.80;;;;;;5072852;28;20012;-48
2022/05/11 05:37:12;;;;;;;3.17;1.30;;;22.30;44.70;;;;;;5072753;28;20025;-50
2022/05/11 05:39:38;;;;;;;3.53;1.30;;;22.40;44.70;;;;;;5072647;28;20013;-51
2022/05/11 05:42:05;;;;;;;3.17;1.23;;;22.30;44.60;;;;;;5071408;28;20100;-48
2022/05/11 05:44:32;;;;;;;3.90;1.30;;;22.40;44.60;;;;;;5072806;28;20519;-52
2022/05/11 05:47:07;;;;;;;3.70;1.38;;;22.30;44.40;;;;;;5072822;28;20020;-51
2022/05/11 05:49:33;;;;;;;2.72;1.30;;;22.30;44.40;;;;;;5072496;28;20031;-48
2022/05/11 05:51:59;;;;;;;2.97;1.10;;;22.30;44.40;;;;;;5072638;28;20025;-49
2022/05/11 05:54:25;;;;;;;2.90;1.20;;;22.30;44.40;;;;;;5057289;28;20009;-50
2022/05/11 05:56:51;;;;;;;4.60;1.50;;;22.30;44.30;;;;;;5076283;28;20165;-54
2022/05/11 05:59:18;;;;;;;2.92;1.13;;;22.30;44.20;;;;;;5076344;28;20008;-54
2022/05/11 06:01:43;;;;;;;3.15;1.20;;;22.30;44.20;;;;;;5075127;28;20475;-53
2022/05/11 06:04:09;;;;;;;2.63;1.20;;;22.30;44.10;;;;;;5076130;28;20013;-54
2022/05/11 06:06:35;;;;;;;4.60;1.30;;;22.30;44.10;;;;;;5075533;28;20021;-57
2022/05/11 06:09:03;;;;;;;5.57;1.30;;;22.30;44.00;;;;;;5074300;28;20024;-54
2022/05/11 06:11:29;;;;;;;5.10;1.15;;;22.30;43.80;;;;;;5075202;28;20093;-55
2022/05/11 06:13:56;;;;;;;3.17;1.35;;;22.30;43.70;;;;;;5057100;28;20099;-55
2022/05/11 06:16:22;;;;;;;3.25;1.27;;;22.30;43.70;;;;;;5073882;28;20024;-57
2022/05/11 06:18:50;;;;;;;4.95;1.25;;;22.30;43.60;;;;;;5073567;28;20013;-55
2022/05/11 06:21:16;;;;;;;3.72;1.35;;;22.30;43.60;;;;;;5071719;28;20021;-57
2022/05/11 06:23:42;;;;;;;8.90;2.00;;;22.40;43.50;;;;;;5071795;28;20029;-54
2022/05/11 06:26:09;;;;;;;5.03;1.60;;;22.40;44.60;;;;;;5071307;28;20096;-58
2022/05/11 06:28:36;;;;;;;11.38;1.60;;;22.60;44.70;;;;;;5073376;28;20023;-56
2022/05/11 06:31:03;;;;;;;16.70;2.17;;;22.90;44.40;;;;;;5073394;28;20055;-59
2022/05/11 06:33:28;;;;;;;9.05;2.17;;;23.00;43.90;;;;;;5072492;28;20471;-56
2022/05/11 06:35:54;;;;;;;9.70;1.55;;;23.00;43.80;;;;;;5073436;28;20082;-53
2022/05/11 06:38:21;;;;;;;13.20;2.08;;;22.90;43.70;;;;;;5073592;28;20490;-54
2022/05/11 06:40:47;;;;;;;8.38;1.80;;;23.00;43.90;;;;;;5073382;28;20025;-52
2022/05/11 06:43:13;;;;;;;21.50;2.17;;;22.90;43.90;;;;;;5073466;28;20019;-50
2022/05/11 06:45:43;;;;;;;7.35;1.92;;;22.90;43.70;;;;;;5073451;28;20017;-51
2022/05/11 06:48:08;;;;;;;10.75;1.90;;;22.90;43.60;;;;;;5071854;28;20126;-59
2022/05/11 06:50:35;;;;;;;9.02;1.48;;;23.00;43.40;;;;;;5071977;28;20127;-56
2022/05/11 06:53:09;;;;;;;6.90;1.67;;;23.00;43.40;;;;;;5072304;28;20125;-53
2022/05/11 07:00:56;;;;;;;11.13;2.00;;;23.00;43.00;;;;;;5073351;28;20069;-51
2022/05/11 07:03:22;;;;;;;8.15;1.83;;;23.10;43.00;;;;;;5073452;28;20016;-51
2022/05/11 07:05:48;;;;;;;6.13;1.52;;;23.10;42.90;;;;;;5070860;28;20057;-52
2022/05/11 07:08:15;;;;;;;9.00;1.98;;;23.00;42.80;;;;;;5072203;28;20025;-53
2022/05/11 07:12:17;;;;;;;7.53;1.92;;;23.10;42.80;;;;;;5073723;28;20391;-51
2022/05/11 07:13:30;;;;;;;8.25;1.67;;;23.10;42.70;;;;;;5072310;28;20044;-54
2022/05/11 07:15:57;;;;;;;13.35;1.80;;;23.10;42.70;;;;;;5072585;28;20055;-57
2022/05/11 07:18:22;;;;;;;8.85;2.05;;;23.10;42.10;;;;;;5071709;28;20020;-53
2022/05/11 07:20:48;;;;;;;11.50;2.03;;;22.60;40.70;;;;;;5072826;28;20019;-52
2022/05/11 07:23:14;;;;;;;8.40;1.80;;;21.90;41.00;;;;;;5071882;28;20051;-54
2022/05/11 07:25:40;;;;;;;8.07;1.70;;;21.40;41.80;;;;;;5073319;28;20017;-51
2022/05/11 07:28:06;;;;;;;5.35;1.35;;;21.10;42.60;;;;;;5073136;28;20063;-51
2022/05/11 07:30:34;;;;;;;11.65;2.17;;;21.30;42.80;;;;;;5072165;28;20021;-52
2022/05/11 07:33:01;;;;;;;5.50;1.70;;;21.60;42.70;;;;;;5073335;28;20095;-54
2022/05/11 07:35:27;;;;;;;9.07;1.77;;;21.90;42.70;;;;;;5072345;28;20317;-55
2022/05/11 07:37:52;;;;;;;6.40;1.60;;;22.10;42.30;;;;;;5073102;28;20532;-48
2022/05/11 07:40:19;;;;;;;9.48;1.90;;;22.10;42.30;;;;;;5073093;28;20023;-51
2022/05/11 07:42:45;;;;;;;8.98;1.90;;;22.10;42.40;;;;;;5072803;28;20514;-52
2022/05/11 07:45:15;;;;;;;7.18;1.98;;;22.20;42.60;;;;;;5072941;28;20012;-51
2022/05/11 07:47:41;;;;;;;18.67;2.28;;;22.50;42.00;;;;;;5073143;28;20063;-52
2022/05/11 07:50:08;;;;;;;10.18;1.90;;;22.70;41.70;;;;;;5073055;28;20576;-57
2022/05/11 07:52:33;;;;;;;17.25;1.67;;;22.70;41.50;;;;;;5071571;28;20100;-49
2022/05/11 07:55:01;;;;;;;11.40;1.70;;;22.80;41.80;;;;;;5072665;28;20471;-53
2022/05/11 08:00:11;;;;;;;7.15;2.05;;;22.80;41.90;;;;;;5071455;28;20386;-46
2022/05/11 08:02:39;;;;;;;9.60;2.40;;;22.80;41.90;;;;;;5071272;28;20096;-50
2022/05/11 08:05:10;;;;;;;21.40;2.30;;;22.70;41.00;;;;;;5072875;28;20025;-53
2022/05/11 08:07:52;;;;;;;19.20;2.55;;;22.20;41.80;;;;;;5055882;28;20019;-51
2022/05/11 08:10:30;;;;;;;12.05;2.30;;;21.90;42.20;;;;;;5073265;28;20013;-50
2022/05/11 08:12:55;;;;;;;14.07;2.13;;;21.90;42.30;;;;;;5072872;28;20012;-53
2022/05/11 08:15:23;;;;;;;9.80;2.50;;;21.90;42.10;;;;;;5072238;28;20037;-50
2022/05/11 08:17:49;;;;;;;13.98;2.17;;;22.00;41.90;;;;;;5071072;28;20012;-53
2022/05/11 08:20:22;;;;;;;17.23;2.22;;;22.00;41.70;;;;;;5070941;28;20065;-47
2022/05/11 08:22:48;;;;;;;19.20;2.20;;;21.90;42.40;;;;;;5070956;28;20106;-50
2022/05/11 08:25:15;;;;;;;12.57;2.30;;;22.20;43.70;;;;;;5071565;28;20068;-45
2022/05/11 08:27:41;;;;;;;20.30;2.53;;;22.60;43.70;;;;;;5071882;28;20020;-53
2022/05/11 08:35:37;;;;;;;14.73;2.10;;;23.50;44.20;;;;;;5071834;28;20064;-50
2022/05/11 08:38:03;;;;;;;23.15;3.15;;;23.70;44.50;;;;;;5070334;28;20013;-50
2022/05/11 08:40:37;;;;;;;17.35;2.83;;;23.80;44.70;;;;;;5087135;28;20012;-53
2022/05/11 08:43:03;;;;;;;13.68;2.40;;;24.10;44.90;;;;;;5071970;28;20013;-52
2022/05/11 08:45:42;;;;;;;16.17;2.67;;;24.20;45.20;;;;;;5070276;28;20443;-55
2022/05/11 08:48:13;;;;;;;9.57;2.27;;;24.30;45.30;;;;;;5071234;28;20016;-52
2022/05/11 08:50:39;;;;;;;13.18;2.28;;;24.30;45.30;;;;;;5071010;28;20756;-53
2022/05/11 08:53:07;;;;;;;14.38;1.73;;;24.50;45.70;;;;;;5053812;28;20096;-54
2022/05/11 08:55:47;;;;;;;10.63;2.60;;;24.60;45.80;;;;;;5069901;28;20050;-54
2022/05/11 08:58:20;;;;;;;19.20;2.20;;;24.60;46.00;;;;;;5069447;28;20036;-49
2022/05/11 09:00:46;;;;;;;13.18;2.20;;;24.70;46.30;;;;;;5069845;28;20051;-51
2022/05/11 09:03:26;;;;;;;13.85;2.30;;;24.80;46.70;;;;;;5053147;28;20029;-53
2022/05/11 09:05:51;;;;;;;12.88;2.20;;;24.90;46.70;;;;;;5071585;28;20505;-53
2022/05/11 09:08:17;;;;;;;11.23;2.22;;;24.90;46.60;;;;;;5070010;28;20040;-57
2022/05/11 09:10:44;;;;;;;11.32;2.25;;;24.90;47.30;;;;;;5070062;28;20501;-57
2022/05/11 09:13:13;;;;;;;9.63;2.30;;;24.50;42.40;;;;;;5053687;28;20016;-57
2022/05/11 09:15:49;;;;;;;10.00;1.83;;;23.20;41.20;;;;;;5071878;28;20066;-52
2022/05/11 09:18:15;;;;;;;8.70;1.90;;;21.60;43.80;;;;;;5071804;28;20082;-52
2022/05/11 09:20:48;;;;;;;9.98;1.70;;;21.00;45.80;;;;;;5072057;28;20443;-55
2022/05/11 09:23:17;;;;;;;14.38;2.05;;;20.50;46.80;;;;;;5071729;28;20036;-49
2022/05/11 09:25:58;;;;;;;7.13;2.20;;;20.20;47.50;;;;;;5070985;28;20024;-54
2022/05/11 09:28:28;;;;;;;9.05;1.80;;;20.00;48.40;;;;;;5071667;28;20028;-55
2022/05/11 09:30:55;;;;;;;6.80;1.63;;;19.90;48.90;;;;;;5075618;28;20097;-53
2022/05/11 09:33:27;;;;;;;9.93;1.90;;;19.80;49.00;;;;;;5075493;28;20042;-56
2022/05/11 09:35:52;;;;;;;8.27;1.77;;;19.80;49.40;;;;;;5075392;28;20042;-57
2022/05/11 09:38:19;;;;;;;11.43;2.35;;;19.70;49.80;;;;;;5075518;28;20471;-53
2022/05/11 09:40:54;;;;;;;5.93;2.20;;;19.50;50.40;;;;;;5075649;28;20012;-58
2022/05/11 09:43:51;;;;;;;6.55;1.80;;;19.60;50.50;;;;;;5075480;28;20012;-58
2022/05/11 09:46:26;;;;;;;11.32;2.20;;;19.80;50.50;;;;;;5074168;28;20060;-54
2022/05/11 09:49:02;;;;;;;7.90;2.03;;;19.70;50.30;;;;;;5075405;28;20070;-58
2022/05/11 09:51:46;;;;;;;5.88;1.80;;;19.80;50.70;;;;;;5074619;28;20023;-55
2022/05/11 09:54:18;;;;;;;11.73;2.22;;;20.00;50.70;;;;;;5074863;28;20046;-54
2022/05/11 09:56:50;;;;;;;16.05;2.72;;;19.90;50.50;;;;;;5074199;28;20031;-55
2022/05/11 09:59:23;;;;;;;10.55;2.22;;;20.20;50.90;;;;;;5075090;28;20020;-59
2022/05/11 10:01:55;;;;;;;10.18;1.90;;;20.70;49.50;;;;;;5075204;28;20387;-57
2022/05/11 10:04:33;;;;;;;11.98;2.13;;;21.10;48.40;;;;;;5075863;28;20040;-56
2022/05/11 10:06:59;;;;;;;13.93;2.30;;;21.40;47.50;;;;;;5074971;28;20028;-58
2022/05/11 10:09:48;;;;;;;8.05;2.42;;;21.70;46.80;;;;;;5059260;28;20024;-57
2022/05/11 10:12:17;;;;;;;10.75;1.95;;;21.90;46.30;;;;;;5076143;28;20059;-56
2022/05/11 10:23:19;;;;;;;6.63;2.00;;;22.30;45.20;;;;;;5077376;28;20055;-59
2022/05/11 10:25:49;;;;;;;13.88;2.00;;;22.30;45.10;;;;;;5077299;28;20048;-58
2022/05/11 10:28:16;;;;;;;10.27;1.70;;;22.40;45.00;;;;;;5077198;28;20008;-58
2022/05/11 10:31:02;;;;;;;10.18;2.03;;;22.40;44.90;;;;;;5074998;28;20398;-56
2022/05/11 10:34:06;;;;;;;9.30;2.03;;;22.40;44.90;;;;;;5065568;28;20039;-58
2022/05/11 10:36:45;;;;;;;8.68;2.80;;;22.50;44.80;;;;;;5076189;28;20024;-55
2022/05/11 10:39:32;;;;;;;7.10;1.90;;;22.50;44.70;;;;;;5076443;28;20043;-57
2022/05/11 10:42:19;;;;;;;9.82;2.00;;;22.50;44.70;;;;;;5075621;28;20029;-58
2022/05/11 10:45:11;;;;;;;9.05;2.63;;;22.50;44.60;;;;;;5074890;28;20024;-56
2022/05/11 10:47:53;;;;;;;10.68;2.10;;;22.60;44.60;;;;;;5061886;28;20091;-56
2022/05/11 10:50:46;;;;;;;7.53;1.90;;;22.60;44.60;;;;;;5076273;28;20016;-58
2022/05/11 10:53:19;;;;;;;7.13;2.30;;;22.60;44.50;;;;;;5076960;28;20029;-58
2022/05/11 10:55:48;;;;;;;9.27;2.03;;;22.60;44.40;;;;;;5076937;28;20025;-57
2022/05/11 10:58:23;;;;;;;14.63;2.13;;;22.70;44.40;;;;;;5076714;28;20100;-61
2022/05/11 11:01:08;;;;;;;8.93;1.73;;;22.60;44.30;;;;;;5077188;28;20082;-56
2022/05/11 11:03:58;;;;;;;7.80;2.00;;;22.70;44.30;;;;;;5076959;28;20009;-58
2022/05/11 11:07:11;;;;;;;13.98;3.20;;;22.70;44.30;;;;;;5077749;28;20414;-57
2022/05/11 11:09:59;;;;;;;5.53;2.00;;;22.70;44.20;;;;;;5063191;28;20396;-58
2022/05/11 11:12:55;;;;;;;4.72;1.48;;;22.70;44.20;;;;;;5077648;28;20016;-58
2022/05/11 11:15:26;;;;;;;5.22;1.60;;;22.70;44.20;;;;;;5074208;28;20495;-57
2022/05/11 11:17:52;;;;;;;7.07;1.80;;;22.80;44.20;;;;;;5075053;28;20083;-56
2022/05/11 11:20:19;;;;;;;9.05;2.15;;;22.70;44.00;;;;;;5073551;28;20012;-55
2022/05/11 11:23:06;;;;;;;8.88;2.13;;;22.80;44.00;;;;;;5073653;28;20045;-58
2022/05/11 11:25:45;;;;;;;8.20;2.17;;;22.80;44.00;;;;;;5075123;28;20521;-58
2022/05/11 11:28:15;;;;;;;5.38;2.00;;;22.80;43.90;;;;;;5075201;28;20072;-52
2022/05/11 11:31:00;;;;;;;8.75;1.85;;;22.70;43.90;;;;;;5075258;28;20052;-58
2022/05/11 11:33:29;;;;;;;8.15;2.10;;;22.80;43.90;;;;;;5075041;28;20536;-57
2022/05/11 11:36:04;;;;;;;4.57;1.88;;;22.80;43.80;;;;;;5074776;28;20028;-58
2022/05/11 11:38:47;;;;;;;6.00;2.00;;;22.80;43.80;;;;;;5074806;28;20013;-57
2022/05/11 11:41:15;;;;;;;7.78;1.70;;;22.80;43.70;;;;;;5074450;28;20035;-58
2022/05/11 11:43:49;;;;;;;5.38;1.70;;;22.80;43.50;;;;;;5075001;28;20016;-58
2022/05/11 11:46:31;;;;;;;7.47;1.83;;;22.90;43.60;;;;;;5074945;28;20029;-58
2022/05/11 11:49:28;;;;;;;5.07;1.48;;;22.80;43.50;;;;;;5075435;28;20017;-53
2022/05/11 11:52:00;;;;;;;7.47;1.55;;;22.90;43.50;;;;;;5071112;28;20036;-58
2022/05/11 11:54:30;;;;;;;4.80;1.73;;;22.90;43.30;;;;;;5074715;28;20013;-56
2022/05/11 11:56:58;;;;;;;6.80;1.83;;;22.90;43.40;;;;;;5074480;28;20498;-55
2022/05/11 11:59:24;;;;;;;6.40;1.55;;;22.90;43.30;;;;;;5073355;28;20012;-57
2022/05/11 12:01:51;;;;;;;9.23;1.88;;;22.90;43.30;;;;;;5074342;28;20031;-58
2022/05/11 12:04:34;;;;;;;6.40;1.63;;;22.90;43.40;;;;;;5074264;28;20012;-56
2022/05/11 12:16:08;;;;;;;9.18;1.98;;;23.00;43.10;;;;;;5073435;28;20036;-58
2022/05/11 12:18:38;;;;;;;7.65;1.60;;;23.00;43.10;;;;;;5073923;28;20050;-58
2022/05/11 12:21:22;;;;;;;5.32;1.88;;;23.00;43.00;;;;;;5073418;28;20008;-58
2022/05/11 12:23:49;;;;;;;8.55;2.17;;;23.00;43.00;;;;;;5073332;28;20490;-58
2022/05/11 12:26:24;;;;;;;7.68;1.80;;;23.00;42.90;;;;;;5073949;28;20540;-59
2022/05/11 12:29:54;;;;;;;13.05;1.63;;;23.00;42.90;;;;;;5073966;28;20073;-58
2022/05/11 12:31:36;;;;;;;5.13;1.73;;;23.00;42.90;;;;;;5073512;28;20055;-59
2022/05/11 12:34:03;;;;;;;5.28;1.95;;;23.00;42.80;;;;;;5073560;28;20016;-58
2022/05/11 12:36:37;;;;;;;4.22;1.48;;;23.10;42.80;;;;;;5055642;28;20062;-59
2022/05/11 12:39:03;;;;;;;3.63;1.38;;;23.10;42.70;;;;;;5073423;28;20013;-58
2022/05/11 12:41:29;;;;;;;6.35;1.85;;;23.10;42.70;;;;;;5073884;28;20514;-59
2022/05/11 12:44:12;;;;;;;4.45;1.42;;;23.10;42.60;;;;;;5072472;28;20032;-59
2022/05/11 12:46:39;;;;;;;5.30;1.80;;;23.10;42.60;;;;;;5073528;28;20095;-58
2022/05/11 12:49:05;;;;;;;4.97;1.80;;;23.10;42.50;;;;;;5073570;28;20025;-58
2022/05/11 12:51:31;;;;;;;7.28;1.92;;;23.20;42.50;;;;;;5073586;28;20387;-58
2022/05/11 12:53:59;;;;;;;8.02;1.88;;;23.20;42.50;;;;;;5073730;28;20019;-59
2022/05/11 12:56:38;;;;;;;5.45;1.65;;;23.20;42.30;;;;;;5073407;28;20056;-58
2022/05/11 12:59:06;;;;;;;4.75;1.60;;;23.30;42.30;;;;;;5073545;28;20500;-58
2022/05/11 13:01:33;;;;;;;5.82;1.48;;;23.30;42.30;;;;;;5072115;28;20015;-57
2022/05/11 13:04:00;;;;;;;8.75;2.53;;;23.30;42.20;;;;;;5072640;28;20146;-57
2022/05/11 13:06:31;;;;;;;5.78;2.20;;;23.30;42.10;;;;;;5073232;28;20016;-57
2022/05/11 13:08:59;;;;;;;7.13;1.63;;;23.30;42.10;;;;;;5072268;28;20020;-57
2022/05/11 13:11:26;;;;;;;8.82;1.65;;;23.40;42.00;;;;;;5072467;28;20483;-55
2022/05/11 13:13:55;;;;;;;6.30;1.45;;;23.40;42.50;;;;;;5073263;28;20471;-55
2022/05/11 13:16:26;;;;;;;8.95;1.42;;;23.40;41.90;;;;;;5073774;28;20035;-58
2022/05/11 13:19:21;;;;;;;4.88;1.80;;;23.50;41.90;;;;;;5073330;28;20035;-57
2022/05/11 13:21:47;;;;;;;5.25;1.55;;;23.50;41.90;;;;;;5072989;28;20064;-55
2022/05/11 13:24:13;;;;;;;7.00;1.40;;;23.50;41.70;;;;;;5073173;28;20525;-58
2022/05/11 13:27:02;;;;;;;3.63;1.38;;;23.60;41.40;;;;;;5072035;28;20093;-57
2022/05/11 13:29:34;;;;;;;9.63;2.05;;;23.60;41.30;;;;;;5072967;28;20086;-56
2022/05/11 13:32:04;;;;;;;8.02;2.03;;;23.70;41.10;;;;;;5072560;28;20017;-54
2022/05/11 13:34:37;;;;;;;9.00;1.83;;;23.80;40.90;;;;;;5072467;28;20059;-57
2022/05/11 13:37:04;;;;;;;7.30;1.80;;;23.80;40.90;;;;;;5072696;28;20032;-55
2022/05/11 13:39:31;;;;;;;12.88;1.73;;;23.80;40.90;;;;;;5072746;28;20066;-58